sensor_id;sensor_type;location;lat;lon;timestamp;temperature;humidity
22787;DHT22;63134;52.020;4.714;2023-04-24T00:02:08;11.00;99.90
22787;DHT22;63134;52.020;4.714;2023-04-24T00:04:56;11.00;99.90
22787;DHT22;63134;52.020;4.714;2023-04-24T00:07:42;11.00;99.90
22787;DHT22;63134;52.020;4.714;2023-04-24T00:10:30;11.00;99.90
22787;DHT22;63134;52.020;4.714;2023-04-24T00:13:16;11.00;99.90
22787;DHT22;63134;52.020;4.714;2023-04-24T00:16:01;11.00;99.90
22787;DHT22;63134;52.020;4.714;2023-04-24T00:18:47;11.00;99.90
22787;DHT22;63134;52.020;4.714;2023-04-24T00:21:33;11.00;99.90
22787;DHT22;63134;52.020;4.714;2023-04-24T00:24:20;11.00;99.90
22787;DHT22;63134;52.020;4.714;2023-04-24T00:27:06;11.10;99.90
22787;DHT22;63134;52.020;4.714;2023-04-24T00:29:52;11.10;99.90
22787;DHT22;63134;52.020;4.714;2023-04-24T00:32:37;11.20;99.90
22787;DHT22;63134;52.020;4.714;2023-04-24T00:35:23;11.20;99.90
22787;DHT22;63134;52.020;4.714;2023-04-24T00:38:08;11.20;99.90
22787;DHT22;63134;52.020;4.714;2023-04-24T00:40:54;11.20;99.90
22787;DHT22;63134;52.020;4.714;2023-04-24T00:43:49;11.30;99.90
22787;DHT22;63134;52.020;4.714;2023-04-24T00:46:35;11.30;99.90
22787;DHT22;63134;52.020;4.714;2023-04-24T00:49:22;11.30;99.90
22787;DHT22;63134;52.020;4.714;2023-04-24T00:52:10;11.20;99.90
22787;DHT22;63134;52.020;4.714;2023-04-24T00:54:57;11.20;99.90
22787;DHT22;63134;52.020;4.714;2023-04-24T00:57:46;11.20;99.90
22787;DHT22;63134;52.020;4.714;2023-04-24T01:00:32;11.20;99.90
22787;DHT22;63134;52.020;4.714;2023-04-24T01:03:22;11.10;99.90
22787;DHT22;63134;52.020;4.714;2023-04-24T01:06:09;11.10;99.90
22787;DHT22;63134;52.020;4.714;2023-04-24T01:08:56;11.10;99.90
22787;DHT22;63134;52.020;4.714;2023-04-24T01:11:44;11.10;99.90
22787;DHT22;63134;52.020;4.714;2023-04-24T01:14:30;11.10;99.90
22787;DHT22;63134;52.020;4.714;2023-04-24T01:17:16;11.10;99.90
22787;DHT22;63134;52.020;4.714;2023-04-24T01:20:02;11.10;99.90
22787;DHT22;63134;52.020;4.714;2023-04-24T01:22:51;11.10;99.90
22787;DHT22;63134;52.020;4.714;2023-04-24T01:25:37;11.10;99.90
22787;DHT22;63134;52.020;4.714;2023-04-24T01:28:23;11.10;99.90
22787;DHT22;63134;52.020;4.714;2023-04-24T01:31:09;11.10;99.90
22787;DHT22;63134;52.020;4.714;2023-04-24T01:33:55;11.10;99.90
22787;DHT22;63134;52.020;4.714;2023-04-24T01:36:41;11.10;99.90
22787;DHT22;63134;52.020;4.714;2023-04-24T01:39:28;11.10;99.90
22787;DHT22;63134;52.020;4.714;2023-04-24T01:42:14;11.10;99.90
22787;DHT22;63134;52.020;4.714;2023-04-24T01:45:01;11.10;99.90
22787;DHT22;63134;52.020;4.714;2023-04-24T01:47:49;11.10;99.90
22787;DHT22;63134;52.020;4.714;2023-04-24T01:50:35;11.00;99.90
22787;DHT22;63134;52.020;4.714;2023-04-24T01:53:21;11.00;99.90
22787;DHT22;63134;52.020;4.714;2023-04-24T01:56:06;11.00;99.90
22787;DHT22;63134;52.020;4.714;2023-04-24T01:58:53;11.00;99.90
22787;DHT22;63134;52.020;4.714;2023-04-24T02:01:39;11.00;99.90
22787;DHT22;63134;52.020;4.714;2023-04-24T02:04:25;11.00;99.90
22787;DHT22;63134;52.020;4.714;2023-04-24T02:07:10;11.00;99.90
22787;DHT22;63134;52.020;4.714;2023-04-24T02:09:56;11.00;99.90
22787;DHT22;63134;52.020;4.714;2023-04-24T02:12:42;11.00;99.90
22787;DHT22;63134;52.020;4.714;2023-04-24T02:15:27;11.00;99.90
22787;DHT22;63134;52.020;4.714;2023-04-24T02:18:14;10.90;99.90
22787;DHT22;63134;52.020;4.714;2023-04-24T02:21:01;10.90;99.90
22787;DHT22;63134;52.020;4.714;2023-04-24T02:23:46;10.90;99.90
22787;DHT22;63134;52.020;4.714;2023-04-24T02:26:32;10.90;99.90
22787;DHT22;63134;52.020;4.714;2023-04-24T02:29:19;11.00;99.90
22787;DHT22;63134;52.020;4.714;2023-04-24T02:32:07;10.90;99.90
22787;DHT22;63134;52.020;4.714;2023-04-24T02:34:57;11.00;99.90
22787;DHT22;63134;52.020;4.714;2023-04-24T02:37:42;11.00;99.90
22787;DHT22;63134;52.020;4.714;2023-04-24T02:40:32;11.00;99.90
22787;DHT22;63134;52.020;4.714;2023-04-24T02:43:20;11.00;99.90
22787;DHT22;63134;52.020;4.714;2023-04-24T02:46:09;11.00;99.90
22787;DHT22;63134;52.020;4.714;2023-04-24T02:48:55;11.00;99.90
22787;DHT22;63134;52.020;4.714;2023-04-24T02:51:40;11.00;99.90
22787;DHT22;63134;52.020;4.714;2023-04-24T02:54:26;10.90;99.90
22787;DHT22;63134;52.020;4.714;2023-04-24T02:57:11;10.90;99.90
22787;DHT22;63134;52.020;4.714;2023-04-24T02:59:59;10.90;99.90
22787;DHT22;63134;52.020;4.714;2023-04-24T03:02:46;10.90;99.90
22787;DHT22;63134;52.020;4.714;2023-04-24T03:05:31;10.90;99.90
22787;DHT22;63134;52.020;4.714;2023-04-24T03:08:17;10.90;99.90
22787;DHT22;63134;52.020;4.714;2023-04-24T03:11:03;10.90;99.90
22787;DHT22;63134;52.020;4.714;2023-04-24T03:13:48;10.80;99.90
22787;DHT22;63134;52.020;4.714;2023-04-24T03:16:34;10.80;99.90
22787;DHT22;63134;52.020;4.714;2023-04-24T03:19:19;10.80;99.90
22787;DHT22;63134;52.020;4.714;2023-04-24T03:22:18;10.80;99.90
22787;DHT22;63134;52.020;4.714;2023-04-24T03:25:03;10.70;99.90
22787;DHT22;63134;52.020;4.714;2023-04-24T03:27:49;10.60;99.90
22787;DHT22;63134;52.020;4.714;2023-04-24T03:30:50;10.60;99.90
22787;DHT22;63134;52.020;4.714;2023-04-24T03:33:37;10.50;99.90
22787;DHT22;63134;52.020;4.714;2023-04-24T03:36:24;10.50;99.90
22787;DHT22;63134;52.020;4.714;2023-04-24T03:39:12;10.40;99.90
22787;DHT22;63134;52.020;4.714;2023-04-24T03:42:04;10.50;99.90
22787;DHT22;63134;52.020;4.714;2023-04-24T03:45:03;10.40;99.90
22787;DHT22;63134;52.020;4.714;2023-04-24T03:47:53;10.40;99.90
22787;DHT22;63134;52.020;4.714;2023-04-24T03:50:39;10.40;99.90
22787;DHT22;63134;52.020;4.714;2023-04-24T03:53:28;10.40;99.90
22787;DHT22;63134;52.020;4.714;2023-04-24T03:56:13;10.40;99.90
22787;DHT22;63134;52.020;4.714;2023-04-24T03:59:02;10.50;99.90
22787;DHT22;63134;52.020;4.714;2023-04-24T04:01:51;10.40;99.90
22787;DHT22;63134;52.020;4.714;2023-04-24T04:04:41;10.40;99.90
22787;DHT22;63134;52.020;4.714;2023-04-24T04:07:28;10.40;99.90
22787;DHT22;63134;52.020;4.714;2023-04-24T04:10:18;10.40;99.90
22787;DHT22;63134;52.020;4.714;2023-04-24T04:13:07;10.40;99.90
22787;DHT22;63134;52.020;4.714;2023-04-24T04:15:54;10.50;99.90
22787;DHT22;63134;52.020;4.714;2023-04-24T04:18:43;10.40;99.90
22787;DHT22;63134;52.020;4.714;2023-04-24T04:21:28;10.40;99.90
22787;DHT22;63134;52.020;4.714;2023-04-24T04:24:23;10.40;99.90
22787;DHT22;63134;52.020;4.714;2023-04-24T04:27:09;10.40;99.90
22787;DHT22;63134;52.020;4.714;2023-04-24T04:30:11;10.40;99.90
22787;DHT22;63134;52.020;4.714;2023-04-24T04:33:05;10.40;99.90
22787;DHT22;63134;52.020;4.714;2023-04-24T04:35:52;10.40;99.90
22787;DHT22;63134;52.020;4.714;2023-04-24T04:38:38;10.40;99.90
22787;DHT22;63134;52.020;4.714;2023-04-24T04:41:43;10.40;99.90
22787;DHT22;63134;52.020;4.714;2023-04-24T04:44:29;10.50;99.90
22787;DHT22;63134;52.020;4.714;2023-04-24T04:47:17;10.50;99.90
22787;DHT22;63134;52.020;4.714;2023-04-24T04:50:04;10.50;99.90
22787;DHT22;63134;52.020;4.714;2023-04-24T04:52:50;10.50;99.90
22787;DHT22;63134;52.020;4.714;2023-04-24T04:55:42;10.50;99.90
22787;DHT22;63134;52.020;4.714;2023-04-24T04:58:36;10.50;99.90
22787;DHT22;63134;52.020;4.714;2023-04-24T05:01:23;10.50;99.90
22787;DHT22;63134;52.020;4.714;2023-04-24T05:04:10;10.60;99.90
22787;DHT22;63134;52.020;4.714;2023-04-24T05:06:56;10.60;99.90
22787;DHT22;63134;52.020;4.714;2023-04-24T05:09:46;10.70;99.90
22787;DHT22;63134;52.020;4.714;2023-04-24T05:12:32;10.70;99.90
22787;DHT22;63134;52.020;4.714;2023-04-24T05:15:19;10.70;99.90
22787;DHT22;63134;52.020;4.714;2023-04-24T05:18:06;10.70;99.90
22787;DHT22;63134;52.020;4.714;2023-04-24T05:20:51;10.80;99.90
22787;DHT22;63134;52.020;4.714;2023-04-24T05:23:37;10.80;99.90
22787;DHT22;63134;52.020;4.714;2023-04-24T05:26:23;10.70;99.90
22787;DHT22;63134;52.020;4.714;2023-04-24T05:29:09;10.80;99.90
22787;DHT22;63134;52.020;4.714;2023-04-24T05:31:54;10.80;99.90
22787;DHT22;63134;52.020;4.714;2023-04-24T05:34:40;10.70;99.90
22787;DHT22;63134;52.020;4.714;2023-04-24T05:37:26;10.70;99.90
22787;DHT22;63134;52.020;4.714;2023-04-24T05:40:13;10.60;99.90
22787;DHT22;63134;52.020;4.714;2023-04-24T05:43:02;10.50;99.90
22787;DHT22;63134;52.020;4.714;2023-04-24T05:45:47;10.50;99.90
22787;DHT22;63134;52.020;4.714;2023-04-24T05:48:33;10.50;99.90
22787;DHT22;63134;52.020;4.714;2023-04-24T05:51:21;10.60;99.90
22787;DHT22;63134;52.020;4.714;2023-04-24T05:54:07;10.50;99.90
22787;DHT22;63134;52.020;4.714;2023-04-24T05:56:57;10.50;99.90
22787;DHT22;63134;52.020;4.714;2023-04-24T05:59:53;10.40;99.90
22787;DHT22;63134;52.020;4.714;2023-04-24T06:02:40;10.40;99.90
22787;DHT22;63134;52.020;4.714;2023-04-24T06:05:29;10.30;99.90
22787;DHT22;63134;52.020;4.714;2023-04-24T06:08:16;10.30;99.90
22787;DHT22;63134;52.020;4.714;2023-04-24T06:11:03;10.30;99.90
22787;DHT22;63134;52.020;4.714;2023-04-24T06:13:50;10.30;99.90
22787;DHT22;63134;52.020;4.714;2023-04-24T06:16:54;10.30;99.90
22787;DHT22;63134;52.020;4.714;2023-04-24T06:19:53;10.30;99.90
22787;DHT22;63134;52.020;4.714;2023-04-24T06:22:40;10.30;99.90
22787;DHT22;63134;52.020;4.714;2023-04-24T06:25:29;10.30;99.90
22787;DHT22;63134;52.020;4.714;2023-04-24T06:28:15;10.30;99.90
22787;DHT22;63134;52.020;4.714;2023-04-24T06:31:01;10.20;99.90
22787;DHT22;63134;52.020;4.714;2023-04-24T06:33:48;10.30;99.90
22787;DHT22;63134;52.020;4.714;2023-04-24T06:36:36;10.30;99.90
22787;DHT22;63134;52.020;4.714;2023-04-24T06:39:22;10.30;99.90
22787;DHT22;63134;52.020;4.714;2023-04-24T06:42:10;10.20;99.90
22787;DHT22;63134;52.020;4.714;2023-04-24T06:44:56;10.20;99.90
22787;DHT22;63134;52.020;4.714;2023-04-24T06:47:41;10.20;99.90
22787;DHT22;63134;52.020;4.714;2023-04-24T06:50:27;10.30;99.90
22787;DHT22;63134;52.020;4.714;2023-04-24T06:53:12;10.30;99.90
22787;DHT22;63134;52.020;4.714;2023-04-24T06:55:59;10.30;99.90
22787;DHT22;63134;52.020;4.714;2023-04-24T06:58:48;10.30;99.90
22787;DHT22;63134;52.020;4.714;2023-04-24T07:01:33;10.30;99.90
22787;DHT22;63134;52.020;4.714;2023-04-24T07:04:18;10.30;99.90
22787;DHT22;63134;52.020;4.714;2023-04-24T07:07:05;10.30;99.90
22787;DHT22;63134;52.020;4.714;2023-04-24T07:09:52;10.30;99.90
22787;DHT22;63134;52.020;4.714;2023-04-24T07:12:37;10.30;99.90
22787;DHT22;63134;52.020;4.714;2023-04-24T07:15:23;10.30;99.90
22787;DHT22;63134;52.020;4.714;2023-04-24T07:18:08;10.30;99.90
22787;DHT22;63134;52.020;4.714;2023-04-24T07:20:56;10.30;99.90
22787;DHT22;63134;52.020;4.714;2023-04-24T07:23:42;10.30;99.90
22787;DHT22;63134;52.020;4.714;2023-04-24T07:26:29;10.30;99.90
22787;DHT22;63134;52.020;4.714;2023-04-24T07:29:15;10.30;99.90
22787;DHT22;63134;52.020;4.714;2023-04-24T07:32:01;10.30;99.90
22787;DHT22;63134;52.020;4.714;2023-04-24T07:34:48;10.30;99.90
22787;DHT22;63134;52.020;4.714;2023-04-24T07:37:35;10.30;99.90
22787;DHT22;63134;52.020;4.714;2023-04-24T07:40:21;10.40;99.90
22787;DHT22;63134;52.020;4.714;2023-04-24T07:43:09;10.40;99.90
22787;DHT22;63134;52.020;4.714;2023-04-24T07:45:55;10.40;99.90
22787;DHT22;63134;52.020;4.714;2023-04-24T07:48:40;10.50;99.90
22787;DHT22;63134;52.020;4.714;2023-04-24T07:51:25;10.50;99.90
22787;DHT22;63134;52.020;4.714;2023-04-24T07:54:14;10.60;99.90
22787;DHT22;63134;52.020;4.714;2023-04-24T07:57:04;10.60;99.90
22787;DHT22;63134;52.020;4.714;2023-04-24T07:59:52;10.70;99.90
22787;DHT22;63134;52.020;4.714;2023-04-24T08:02:37;10.70;99.90
22787;DHT22;63134;52.020;4.714;2023-04-24T08:05:23;10.70;99.90
22787;DHT22;63134;52.020;4.714;2023-04-24T08:08:10;10.60;99.90
22787;DHT22;63134;52.020;4.714;2023-04-24T08:10:56;10.60;99.90
22787;DHT22;63134;52.020;4.714;2023-04-24T08:13:44;10.60;99.90
22787;DHT22;63134;52.020;4.714;2023-04-24T08:16:33;10.60;99.90
22787;DHT22;63134;52.020;4.714;2023-04-24T08:19:19;10.50;99.90
22787;DHT22;63134;52.020;4.714;2023-04-24T08:22:05;10.50;99.90
22787;DHT22;63134;52.020;4.714;2023-04-24T08:24:51;10.50;99.90
22787;DHT22;63134;52.020;4.714;2023-04-24T08:27:36;10.50;99.90
22787;DHT22;63134;52.020;4.714;2023-04-24T08:30:22;10.60;99.90
22787;DHT22;63134;52.020;4.714;2023-04-24T08:33:10;10.70;99.90
22787;DHT22;63134;52.020;4.714;2023-04-24T08:35:56;10.80;99.90
22787;DHT22;63134;52.020;4.714;2023-04-24T08:38:42;11.00;99.90
22787;DHT22;63134;52.020;4.714;2023-04-24T08:41:27;11.10;99.90
22787;DHT22;63134;52.020;4.714;2023-04-24T08:44:19;11.10;99.90
22787;DHT22;63134;52.020;4.714;2023-04-24T08:47:05;11.10;99.90
22787;DHT22;63134;52.020;4.714;2023-04-24T08:49:52;11.20;99.90
22787;DHT22;63134;52.020;4.714;2023-04-24T08:52:39;11.20;99.90
22787;DHT22;63134;52.020;4.714;2023-04-24T08:55:28;11.20;99.90
22787;DHT22;63134;52.020;4.714;2023-04-24T08:58:16;11.10;99.90
22787;DHT22;63134;52.020;4.714;2023-04-24T09:01:03;11.00;99.90
22787;DHT22;63134;52.020;4.714;2023-04-24T09:03:53;10.90;99.90
22787;DHT22;63134;52.020;4.714;2023-04-24T09:06:40;10.80;98.90
22787;DHT22;63134;52.020;4.714;2023-04-24T09:09:26;10.70;99.90
22787;DHT22;63134;52.020;4.714;2023-04-24T09:12:14;10.90;99.90
22787;DHT22;63134;52.020;4.714;2023-04-24T09:15:00;11.10;99.90
22787;DHT22;63134;52.020;4.714;2023-04-24T09:17:48;11.30;99.90
22787;DHT22;63134;52.020;4.714;2023-04-24T09:20:56;11.40;99.90
22787;DHT22;63134;52.020;4.714;2023-04-24T09:23:43;11.50;99.90
22787;DHT22;63134;52.020;4.714;2023-04-24T09:26:30;11.50;99.90
22787;DHT22;63134;52.020;4.714;2023-04-24T09:29:17;11.30;99.20
22787;DHT22;63134;52.020;4.714;2023-04-24T09:32:19;11.10;96.20
22787;DHT22;63134;52.020;4.714;2023-04-24T09:35:10;11.10;96.80
22787;DHT22;63134;52.020;4.714;2023-04-24T09:37:57;11.30;98.00
22787;DHT22;63134;52.020;4.714;2023-04-24T09:40:43;11.50;97.30
22787;DHT22;63134;52.020;4.714;2023-04-24T09:43:29;11.50;96.90
22787;DHT22;63134;52.020;4.714;2023-04-24T09:46:18;11.70;98.00
22787;DHT22;63134;52.020;4.714;2023-04-24T09:49:12;11.80;98.10
22787;DHT22;63134;52.020;4.714;2023-04-24T09:52:10;12.00;98.50
22787;DHT22;63134;52.020;4.714;2023-04-24T09:54:57;12.10;96.40
22787;DHT22;63134;52.020;4.714;2023-04-24T09:57:59;12.30;95.40
22787;DHT22;63134;52.020;4.714;2023-04-24T10:00:46;12.50;96.60
22787;DHT22;63134;52.020;4.714;2023-04-24T10:03:33;12.60;94.90
22787;DHT22;63134;52.020;4.714;2023-04-24T10:06:19;12.50;94.40
22787;DHT22;63134;52.020;4.714;2023-04-24T10:09:05;12.60;93.40
22787;DHT22;63134;52.020;4.714;2023-04-24T10:11:52;12.60;94.00
22787;DHT22;63134;52.020;4.714;2023-04-24T10:14:38;12.60;92.20
22787;DHT22;63134;52.020;4.714;2023-04-24T10:17:28;12.50;91.20
22787;DHT22;63134;52.020;4.714;2023-04-24T10:20:15;12.20;90.50
22787;DHT22;63134;52.020;4.714;2023-04-24T10:23:01;12.00;90.80
22787;DHT22;63134;52.020;4.714;2023-04-24T10:25:48;12.00;92.00
22787;DHT22;63134;52.020;4.714;2023-04-24T10:28:36;12.10;91.80
22787;DHT22;63134;52.020;4.714;2023-04-24T10:31:31;12.40;92.20
22787;DHT22;63134;52.020;4.714;2023-04-24T10:34:24;12.50;91.70
22787;DHT22;63134;52.020;4.714;2023-04-24T10:37:13;12.40;89.50
22787;DHT22;63134;52.020;4.714;2023-04-24T10:40:00;12.50;89.40
22787;DHT22;63134;52.020;4.714;2023-04-24T10:42:51;12.60;89.10
22787;DHT22;63134;52.020;4.714;2023-04-24T10:46:06;12.90;90.20
22787;DHT22;63134;52.020;4.714;2023-04-24T10:48:53;13.20;89.40
22787;DHT22;63134;52.020;4.714;2023-04-24T10:51:48;13.40;85.80
22787;DHT22;63134;52.020;4.714;2023-04-24T10:57:27;14.00;84.90
22787;DHT22;63134;52.020;4.714;2023-04-24T11:00:21;13.90;80.70
22787;DHT22;63134;52.020;4.714;2023-04-24T11:03:30;13.70;79.60
22787;DHT22;63134;52.020;4.714;2023-04-24T11:06:37;13.30;79.70
22787;DHT22;63134;52.020;4.714;2023-04-24T11:09:27;13.10;80.60
22787;DHT22;63134;52.020;4.714;2023-04-24T11:12:14;13.10;81.90
22787;DHT22;63134;52.020;4.714;2023-04-24T11:15:01;13.10;82.60
22787;DHT22;63134;52.020;4.714;2023-04-24T11:17:48;13.30;84.20
22787;DHT22;63134;52.020;4.714;2023-04-24T11:20:34;13.60;83.10
22787;DHT22;63134;52.020;4.714;2023-04-24T11:23:22;14.10;81.70
22787;DHT22;63134;52.020;4.714;2023-04-24T11:26:19;14.60;81.40
22787;DHT22;63134;52.020;4.714;2023-04-24T11:29:09;15.20;77.30
22787;DHT22;63134;52.020;4.714;2023-04-24T11:31:54;16.00;75.90
22787;DHT22;63134;52.020;4.714;2023-04-24T11:34:41;16.30;71.20
22787;DHT22;63134;52.020;4.714;2023-04-24T11:37:40;16.70;69.10
22787;DHT22;63134;52.020;4.714;2023-04-24T11:40:25;16.80;65.30
22787;DHT22;63134;52.020;4.714;2023-04-24T11:43:11;16.60;61.90
22787;DHT22;63134;52.020;4.714;2023-04-24T11:45:59;16.30;62.20
22787;DHT22;63134;52.020;4.714;2023-04-24T11:48:45;16.20;61.50
22787;DHT22;63134;52.020;4.714;2023-04-24T11:51:31;16.00;62.70
22787;DHT22;63134;52.020;4.714;2023-04-24T11:54:32;15.90;63.10
22787;DHT22;63134;52.020;4.714;2023-04-24T11:57:23;16.00;64.90
22787;DHT22;63134;52.020;4.714;2023-04-24T12:00:31;16.30;63.20
22787;DHT22;63134;52.020;4.714;2023-04-24T12:03:20;16.50;62.90
22787;DHT22;63134;52.020;4.714;2023-04-24T12:06:06;16.30;60.50
22787;DHT22;63134;52.020;4.714;2023-04-24T12:08:55;16.30;59.60
22787;DHT22;63134;52.020;4.714;2023-04-24T12:11:56;16.80;61.60
22787;DHT22;63134;52.020;4.714;2023-04-24T12:14:54;16.70;59.10
22787;DHT22;63134;52.020;4.714;2023-04-24T12:17:41;16.80;59.90
22787;DHT22;63134;52.020;4.714;2023-04-24T12:20:29;17.00;60.40
22787;DHT22;63134;52.020;4.714;2023-04-24T12:23:15;16.90;58.30
22787;DHT22;63134;52.020;4.714;2023-04-24T12:26:04;16.90;59.20
22787;DHT22;63134;52.020;4.714;2023-04-24T12:28:50;16.80;57.20
22787;DHT22;63134;52.020;4.714;2023-04-24T12:31:37;16.50;56.40
22787;DHT22;63134;52.020;4.714;2023-04-24T12:34:24;16.10;56.90
22787;DHT22;63134;52.020;4.714;2023-04-24T12:37:11;15.70;58.20
22787;DHT22;63134;52.020;4.714;2023-04-24T12:40:06;15.50;59.60
22787;DHT22;63134;52.020;4.714;2023-04-24T12:42:52;15.50;59.80
22787;DHT22;63134;52.020;4.714;2023-04-24T12:45:40;15.60;60.20
22787;DHT22;63134;52.020;4.714;2023-04-24T12:48:29;15.50;59.00
22787;DHT22;63134;52.020;4.714;2023-04-24T12:51:15;15.70;60.60
22787;DHT22;63134;52.020;4.714;2023-04-24T12:54:01;16.30;59.00
22787;DHT22;63134;52.020;4.714;2023-04-24T12:56:46;16.90;57.10
22787;DHT22;63134;52.020;4.714;2023-04-24T12:59:31;16.90;56.40
22787;DHT22;63134;52.020;4.714;2023-04-24T13:02:17;17.60;56.70
22787;DHT22;63134;52.020;4.714;2023-04-24T13:05:03;18.20;54.40
22787;DHT22;63134;52.020;4.714;2023-04-24T13:07:49;18.70;52.50
22787;DHT22;63134;52.020;4.714;2023-04-24T13:10:35;18.60;50.60
22787;DHT22;63134;52.020;4.714;2023-04-24T13:13:20;18.60;49.70
22787;DHT22;63134;52.020;4.714;2023-04-24T13:16:05;19.50;49.70
22787;DHT22;63134;52.020;4.714;2023-04-24T13:18:51;19.40;48.20
22787;DHT22;63134;52.020;4.714;2023-04-24T13:21:36;19.00;48.20
22787;DHT22;63134;52.020;4.714;2023-04-24T13:24:23;19.20;48.20
22787;DHT22;63134;52.020;4.714;2023-04-24T13:27:11;19.30;48.60
22787;DHT22;63134;52.020;4.714;2023-04-24T13:29:57;18.90;49.20
22787;DHT22;63134;52.020;4.714;2023-04-24T13:32:43;18.20;50.10
22787;DHT22;63134;52.020;4.714;2023-04-24T13:35:31;18.10;50.30
22787;DHT22;63134;52.020;4.714;2023-04-24T13:38:17;18.80;50.50
22787;DHT22;63134;52.020;4.714;2023-04-24T13:41:03;20.50;47.70
22787;DHT22;63134;52.020;4.714;2023-04-24T13:43:49;20.90;44.60
22787;DHT22;63134;52.020;4.714;2023-04-24T13:46:34;20.30;43.80
22787;DHT22;63134;52.020;4.714;2023-04-24T13:49:21;20.20;45.10
22787;DHT22;63134;52.020;4.714;2023-04-24T13:52:07;21.10;44.90
22787;DHT22;63134;52.020;4.714;2023-04-24T13:54:52;21.40;40.60
22787;DHT22;63134;52.020;4.714;2023-04-24T13:57:42;20.60;42.20
22787;DHT22;63134;52.020;4.714;2023-04-24T14:00:28;19.80;42.80
22787;DHT22;63134;52.020;4.714;2023-04-24T14:03:13;19.20;45.10
22787;DHT22;63134;52.020;4.714;2023-04-24T14:05:59;18.90;45.20
22787;DHT22;63134;52.020;4.714;2023-04-24T14:08:45;18.50;46.10
22787;DHT22;63134;52.020;4.714;2023-04-24T14:11:31;18.80;47.20
22787;DHT22;63134;52.020;4.714;2023-04-24T14:14:17;19.10;47.20
22787;DHT22;63134;52.020;4.714;2023-04-24T14:17:06;19.40;46.10
22787;DHT22;63134;52.020;4.714;2023-04-24T14:19:51;19.00;45.00
22787;DHT22;63134;52.020;4.714;2023-04-24T14:22:37;18.20;47.90
22787;DHT22;63134;52.020;4.714;2023-04-24T14:25:23;17.20;51.80
22787;DHT22;63134;52.020;4.714;2023-04-24T14:28:09;16.40;55.70
22787;DHT22;63134;52.020;4.714;2023-04-24T14:30:54;15.70;59.00
22787;DHT22;63134;52.020;4.714;2023-04-24T14:33:40;15.40;61.40
22787;DHT22;63134;52.020;4.714;2023-04-24T14:36:26;15.60;64.60
22787;DHT22;63134;52.020;4.714;2023-04-24T14:39:11;16.40;63.80
22787;DHT22;63134;52.020;4.714;2023-04-24T14:41:57;16.30;61.20
22787;DHT22;63134;52.020;4.714;2023-04-24T14:44:42;16.50;61.90
22787;DHT22;63134;52.020;4.714;2023-04-24T14:47:28;16.50;59.80
22787;DHT22;63134;52.020;4.714;2023-04-24T14:50:19;16.50;59.50
22787;DHT22;63134;52.020;4.714;2023-04-24T14:53:08;16.50;59.80
22787;DHT22;63134;52.020;4.714;2023-04-24T14:55:54;16.50;59.50
22787;DHT22;63134;52.020;4.714;2023-04-24T14:58:40;16.50;58.00
22787;DHT22;63134;52.020;4.714;2023-04-24T15:01:26;16.40;58.60
22787;DHT22;63134;52.020;4.714;2023-04-24T15:04:11;16.20;57.80
22787;DHT22;63134;52.020;4.714;2023-04-24T15:06:57;16.10;57.80
22787;DHT22;63134;52.020;4.714;2023-04-24T15:09:43;17.00;57.40
22787;DHT22;63134;52.020;4.714;2023-04-24T15:12:30;17.90;56.00
22787;DHT22;63134;52.020;4.714;2023-04-24T15:15:16;18.10;52.50
22787;DHT22;63134;52.020;4.714;2023-04-24T15:18:04;17.80;50.80
22787;DHT22;63134;52.020;4.714;2023-04-24T15:20:50;17.60;51.40
22787;DHT22;63134;52.020;4.714;2023-04-24T15:23:35;17.00;51.90
22787;DHT22;63134;52.020;4.714;2023-04-24T15:26:21;16.70;53.00
22787;DHT22;63134;52.020;4.714;2023-04-24T15:29:07;16.40;53.30
22787;DHT22;63134;52.020;4.714;2023-04-24T15:31:53;16.00;54.00
22787;DHT22;63134;52.020;4.714;2023-04-24T15:34:38;15.60;54.80
22787;DHT22;63134;52.020;4.714;2023-04-24T15:37:23;15.30;57.50
22787;DHT22;63134;52.020;4.714;2023-04-24T15:40:09;15.80;60.70
22787;DHT22;63134;52.020;4.714;2023-04-24T15:42:58;17.60;59.90
22787;DHT22;63134;52.020;4.714;2023-04-24T15:45:43;18.90;54.20
22787;DHT22;63134;52.020;4.714;2023-04-24T15:48:31;19.30;52.70
22787;DHT22;63134;52.020;4.714;2023-04-24T15:51:19;20.20;52.10
22787;DHT22;63134;52.020;4.714;2023-04-24T15:54:05;22.30;47.10
22787;DHT22;63134;52.020;4.714;2023-04-24T15:56:50;22.40;44.60
22787;DHT22;63134;52.020;4.714;2023-04-24T15:59:36;21.70;44.30
22787;DHT22;63134;52.020;4.714;2023-04-24T16:02:22;22.00;44.20
22787;DHT22;63134;52.020;4.714;2023-04-24T16:05:08;22.60;41.10
22787;DHT22;63134;52.020;4.714;2023-04-24T16:07:54;21.50;41.60
22787;DHT22;63134;52.020;4.714;2023-04-24T16:10:40;21.10;43.00
22787;DHT22;63134;52.020;4.714;2023-04-24T16:13:26;21.00;43.30
22787;DHT22;63134;52.020;4.714;2023-04-24T16:16:13;21.00;42.30
22787;DHT22;63134;52.020;4.714;2023-04-24T16:18:58;20.50;43.50
22787;DHT22;63134;52.020;4.714;2023-04-24T16:21:44;21.10;43.00
22787;DHT22;63134;52.020;4.714;2023-04-24T16:24:32;21.70;41.50
22787;DHT22;63134;52.020;4.714;2023-04-24T16:27:19;21.80;40.10
22787;DHT22;63134;52.020;4.714;2023-04-24T16:30:08;21.10;41.40
22787;DHT22;63134;52.020;4.714;2023-04-24T16:32:53;20.60;41.70
22787;DHT22;63134;52.020;4.714;2023-04-24T16:35:39;20.00;42.90
22787;DHT22;63134;52.020;4.714;2023-04-24T16:38:25;20.60;44.60
22787;DHT22;63134;52.020;4.714;2023-04-24T16:41:11;21.00;41.80
22787;DHT22;63134;52.020;4.714;2023-04-24T16:43:56;19.70;43.10
22787;DHT22;63134;52.020;4.714;2023-04-24T16:46:42;18.40;46.00
22787;DHT22;63134;52.020;4.714;2023-04-24T16:49:29;17.50;48.30
22787;DHT22;63134;52.020;4.714;2023-04-24T16:52:16;16.70;50.10
22787;DHT22;63134;52.020;4.714;2023-04-24T16:55:02;16.10;51.80
22787;DHT22;63134;52.020;4.714;2023-04-24T16:57:51;15.50;53.30
22787;DHT22;63134;52.020;4.714;2023-04-24T17:00:39;15.00;55.10
22787;DHT22;63134;52.020;4.714;2023-04-24T17:03:28;14.50;56.60
22787;DHT22;63134;52.020;4.714;2023-04-24T17:06:13;14.10;57.40
22787;DHT22;63134;52.020;4.714;2023-04-24T17:08:59;13.90;58.30
22787;DHT22;63134;52.020;4.714;2023-04-24T17:11:45;13.60;59.10
22787;DHT22;63134;52.020;4.714;2023-04-24T17:14:32;13.40;59.70
22787;DHT22;63134;52.020;4.714;2023-04-24T17:17:17;13.20;60.30
22787;DHT22;63134;52.020;4.714;2023-04-24T17:20:05;13.00;60.10
22787;DHT22;63134;52.020;4.714;2023-04-24T17:23:06;12.80;60.20
22787;DHT22;63134;52.020;4.714;2023-04-24T17:25:56;12.60;61.00
22787;DHT22;63134;52.020;4.714;2023-04-24T17:28:42;12.50;62.10
22787;DHT22;63134;52.020;4.714;2023-04-24T17:31:27;12.50;62.70
22787;DHT22;63134;52.020;4.714;2023-04-24T17:34:12;12.40;63.60
22787;DHT22;63134;52.020;4.714;2023-04-24T17:37:01;12.20;64.30
22787;DHT22;63134;52.020;4.714;2023-04-24T17:39:49;12.20;65.20
22787;DHT22;63134;52.020;4.714;2023-04-24T17:42:35;12.10;66.00